EZY416 EGSS-EGPH
Flight info
| Callsign | EZY416 |
|---|---|
| Flight time | N/A |
| Altitude | 32000 |
| Route | UTAVA Q75 BUZAD T420 TNT UN57 POL UN601 RIBEL DCT INPIP |
| Aircraft | A20N/M-SDE2E3FGHIRWXY/LB1 |
Departure
| Time | 2026-05-01 15:30 |
|---|---|
| Airport | London Stansted Airport (EGSS) |
Arrival
| Time | N/A |
|---|---|
| Airport | Edinburgh Airport (EGPH) |
| Time | Latitude | Longitude | Altitude | Speed | Heading |
|---|---|---|---|---|---|
| 2026-05-01 15:06 | 51.89008 | 0.25747 | 347 ft | 0 kts | 44° |
| 2026-05-01 15:19 | 51.89007 | 0.25747 | 347 ft | 0 kts | 44° |
| 2026-05-01 15:23 | 51.88998 | 0.25732 | 355 ft | 4 kts | 54° |
| 2026-05-01 15:24 | 51.88987 | 0.25702 | 351 ft | 4 kts | 56° |
| 2026-05-01 15:24 | 51.88972 | 0.25683 | 351 ft | 4 kts | 326° |
| 2026-05-01 15:24 | 51.88967 | 0.25688 | 349 ft | 3 kts | 313° |
| 2026-05-01 15:24 | 51.88969 | 0.25685 | 350 ft | 0 kts | 313° |
| 2026-05-01 15:27 | 51.88972 | 0.25680 | 351 ft | 3 kts | 313° |
| 2026-05-01 15:27 | 51.89013 | 0.25608 | 347 ft | 15 kts | 313° |
| 2026-05-01 15:27 | 51.89101 | 0.25455 | 347 ft | 19 kts | 313° |
| 2026-05-01 15:28 | 51.89281 | 0.25210 | 348 ft | 13 kts | 33° |
| 2026-05-01 15:28 | 51.89370 | 0.25220 | 351 ft | 16 kts | 321° |
| 2026-05-01 15:28 | 51.89433 | 0.25118 | 350 ft | 0 kts | 313° |
| 2026-05-01 15:29 | 51.89463 | 0.25069 | 347 ft | 10 kts | 314° |
| 2026-05-01 15:29 | 51.89479 | 0.24938 | 335 ft | 16 kts | 234° |
| 2026-05-01 15:29 | 51.88957 | 0.24165 | 337 ft | 110 kts | 224° |
| 2026-05-01 15:30 | 51.87572 | 0.21974 | 972 ft | 151 kts | 219° |
| 2026-05-01 15:31 | 51.84172 | 0.17138 | 3331 ft | 189 kts | 221° |
| 2026-05-01 15:31 | 51.82840 | 0.13100 | 4500 ft | 240 kts | 268° |
| 2026-05-01 15:32 | 51.84632 | 0.08171 | 6327 ft | 282 kts | 326° |
| 2026-05-01 15:32 | 51.88554 | 0.07236 | 8397 ft | 300 kts | 7° |
| 2026-05-01 15:33 | 51.94433 | 0.04429 | 10964 ft | 325 kts | 307° |
| 2026-05-01 15:34 | 51.97794 | -0.05858 | 13063 ft | 359 kts | 292° |